createdAt,value
2018-06-08T00:00:38.265Z,31.56
2018-06-08T00:03:11.976Z,31.39
2018-06-08T00:05:47.866Z,30.55
2018-06-08T00:08:23.888Z,31.46
2018-06-08T00:10:59.762Z,31.08
2018-06-08T00:13:37.359Z,30.71
2018-06-08T00:16:14.922Z,30.71
2018-06-08T00:18:50.329Z,29.96
2018-06-08T00:21:27.092Z,31.52
2018-06-08T00:24:03.082Z,31.08
2018-06-08T00:26:39.917Z,31.00
2018-06-08T00:29:15.818Z,30.21
2018-06-08T00:31:51.536Z,29.97
2018-06-08T00:34:27.270Z,30.17
2018-06-08T00:37:03.152Z,30.19
2018-06-08T00:39:39.483Z,29.41
2018-06-08T00:42:16.101Z,30.01
2018-06-08T00:44:52.681Z,29.72
2018-06-08T00:47:29.447Z,29.25
2018-06-08T00:50:07.225Z,29.48
2018-06-08T00:52:45.278Z,29.98
2018-06-08T00:55:22.063Z,29.01
2018-06-08T00:57:59.074Z,30.07
2018-06-08T01:00:35.212Z,29.70
2018-06-08T01:03:11.784Z,29.63
2018-06-08T01:05:47.451Z,29.23
2018-06-08T01:08:23.276Z,29.63
2018-06-08T01:10:59.110Z,29.47
2018-06-08T01:13:34.937Z,28.48
2018-06-08T01:16:10.880Z,29.04
2018-06-08T01:18:46.546Z,30.03
2018-06-08T01:21:22.488Z,29.35
2018-06-08T01:24:00.830Z,29.74
2018-06-08T01:26:38.092Z,29.20
2018-06-08T01:29:15.076Z,29.41
2018-06-08T01:31:51.111Z,29.90
2018-06-08T01:34:27.085Z,29.99
2018-06-08T01:37:03.084Z,28.88
2018-06-08T01:39:38.679Z,29.61
2018-06-08T01:42:14.427Z,29.93
2018-06-08T01:44:50.082Z,29.91
2018-06-08T01:47:26.104Z,29.85
2018-06-08T01:50:01.575Z,29.40
2018-06-08T01:52:37.446Z,30.04
2018-06-08T01:58:05.334Z,30.05
2018-06-08T02:00:41.303Z,29.75
2018-06-08T02:03:17.292Z,30.16
2018-06-08T02:05:54.417Z,30.07
2018-06-08T02:08:32.074Z,30.67
2018-06-08T02:11:10.583Z,30.42
2018-06-08T02:13:50.761Z,29.24
2018-06-08T02:16:26.538Z,29.95
2018-06-08T02:22:04.432Z,30.26
2018-06-08T02:24:41.764Z,30.09
2018-06-08T02:27:17.720Z,30.40
2018-06-08T02:29:51.499Z,30.60
2018-06-08T02:32:27.356Z,30.13
2018-06-08T02:35:03.338Z,30.54
2018-06-08T02:37:39.251Z,30.19
2018-06-08T02:40:15.415Z,29.92
2018-06-08T02:42:51.571Z,30.62
2018-06-08T02:46:23.379Z,30.10
2018-06-08T02:48:59.421Z,30.06
2018-06-08T02:51:36.421Z,31.09
2018-06-08T02:54:12.618Z,30.70
2018-06-08T02:56:48.873Z,30.26
2018-06-08T02:59:24.426Z,31.04
2018-06-08T03:01:59.041Z,30.65
2018-06-08T03:04:34.541Z,30.64
2018-06-08T03:07:10.081Z,29.88
2018-06-08T03:09:45.795Z,30.38
2018-06-08T03:12:21.632Z,31.13
2018-06-08T03:14:57.260Z,30.93
2018-06-08T03:17:33.759Z,30.42
2018-06-08T03:20:13.229Z,30.41
2018-06-08T03:22:50.310Z,30.45
2018-06-08T03:25:24.007Z,31.33
2018-06-08T03:27:59.858Z,32.24
2018-06-08T03:30:37.083Z,30.83
2018-06-08T03:33:12.899Z,31.80
2018-06-08T03:35:48.331Z,31.79
2018-06-08T03:38:24.087Z,31.83
2018-06-08T03:40:59.842Z,31.92
2018-06-08T03:43:35.452Z,31.63
2018-06-08T03:46:09.036Z,31.28
2018-06-08T03:48:44.825Z,31.07
2018-06-08T03:51:20.843Z,31.30
2018-06-08T03:53:56.794Z,31.84
2018-06-08T03:56:33.321Z,32.20
2018-06-08T03:59:09.260Z,32.39
2018-06-08T04:01:46.497Z,31.39
2018-06-08T04:04:22.082Z,32.99
2018-06-08T04:07:26.804Z,33.65
2018-06-08T04:10:02.873Z,32.70
2018-06-08T04:12:39.871Z,33.17
2018-06-08T04:15:15.783Z,32.41
2018-06-08T04:17:52.089Z,33.10
2018-06-08T04:20:25.990Z,32.25
2018-06-08T04:23:01.886Z,32.42
2018-06-08T04:25:37.854Z,32.94
2018-06-08T04:28:14.470Z,33.10
2018-06-08T04:30:50.883Z,33.16
2018-06-08T04:33:27.175Z,32.50
2018-06-08T04:36:03.195Z,33.18
2018-06-08T04:39:23.442Z,32.96
2018-06-08T04:41:59.335Z,33.06
2018-06-08T04:44:33.001Z,33.84
2018-06-08T04:47:08.656Z,33.36
2018-06-08T04:49:44.289Z,33.40
2018-06-08T04:54:31.072Z,33.78
2018-06-08T04:57:06.970Z,32.99
2018-06-08T04:59:42.829Z,33.35
2018-06-08T05:02:18.573Z,34.09
2018-06-08T05:04:54.464Z,34.01
2018-06-08T05:07:30.093Z,34.10
2018-06-08T05:10:06.098Z,33.21
2018-06-08T05:12:42.258Z,33.49
2018-06-08T05:15:18.084Z,34.58
2018-06-08T05:17:54.070Z,33.21
2018-06-08T05:20:30.086Z,34.36
2018-06-08T05:23:06.277Z,34.42
2018-06-08T05:25:42.093Z,33.89
2018-06-08T05:28:18.534Z,34.09
2018-06-08T05:30:55.282Z,34.39
2018-06-08T05:33:31.205Z,34.79
2018-06-08T05:36:07.102Z,34.84
2018-06-08T05:38:43.870Z,34.77
2018-06-08T05:41:19.781Z,34.40
2018-06-08T05:43:55.486Z,34.13
2018-06-08T05:46:32.085Z,34.19
2018-06-08T05:49:08.096Z,34.37
2018-06-08T05:51:44.096Z,35.15
2018-06-08T05:54:20.327Z,34.91
2018-06-08T05:56:57.886Z,34.72
2018-06-08T05:59:34.326Z,34.21
2018-06-08T06:02:10.103Z,34.53
2018-06-08T06:04:46.106Z,34.43
2018-06-08T06:07:21.812Z,34.79
2018-06-08T06:09:57.580Z,34.56
2018-06-08T06:12:33.211Z,34.82
2018-06-08T06:15:09.211Z,34.91
2018-06-08T06:17:44.890Z,35.75
2018-06-08T06:20:20.529Z,34.95
2018-06-08T06:22:56.274Z,35.95
2018-06-08T06:25:31.942Z,35.80
2018-06-08T06:28:07.803Z,35.83
2018-06-08T06:30:43.543Z,36.22
2018-06-08T06:33:19.469Z,35.76
2018-06-08T06:35:55.223Z,36.32
2018-06-08T06:38:31.098Z,35.97
2018-06-08T06:41:06.566Z,36.56
2018-06-08T06:43:42.292Z,36.28
2018-06-08T06:46:18.973Z,36.69
2018-06-08T06:48:54.719Z,36.72
2018-06-08T06:51:30.753Z,36.74
2018-06-08T06:54:06.520Z,36.48
2018-06-08T06:56:43.126Z,36.41
2018-06-08T06:59:19.144Z,36.18
2018-06-08T07:01:55.257Z,37.34
2018-06-08T07:04:31.474Z,36.96
2018-06-08T07:08:10.668Z,37.70
2018-06-08T07:10:46.400Z,37.94
2018-06-08T07:13:23.125Z,38.77
2018-06-08T07:15:59.130Z,39.39
2018-06-08T07:18:35.117Z,38.59
2018-06-08T07:21:11.426Z,38.50
2018-06-08T07:23:48.745Z,38.64
2018-06-08T07:26:26.541Z,38.72
2018-06-08T07:29:02.696Z,39.20
2018-06-08T07:31:38.407Z,38.84
2018-06-08T07:34:14.574Z,39.17
2018-06-08T07:36:50.520Z,39.31
2018-06-08T07:39:26.585Z,39.09
2018-06-08T07:42:02.823Z,39.29
2018-06-08T07:44:38.839Z,39.04
2018-06-08T07:47:15.251Z,39.85
2018-06-08T07:49:51.338Z,39.72
2018-06-08T07:54:36.550Z,39.83
2018-06-08T07:57:13.714Z,39.87
2018-06-08T07:59:50.855Z,39.19
2018-06-08T08:02:26.413Z,39.68
2018-06-08T08:05:00.215Z,39.09
2018-06-08T08:07:36.214Z,39.59
2018-06-08T08:10:12.273Z,39.12
2018-06-08T08:12:46.232Z,39.61
2018-06-08T08:15:23.206Z,39.85
2018-06-08T08:17:59.314Z,39.04
2018-06-08T08:20:35.269Z,39.16
2018-06-08T08:23:11.279Z,38.76
2018-06-08T08:25:54.038Z,39.96
2018-06-08T08:28:30.218Z,39.66
2018-06-08T08:31:06.229Z,39.34
2018-06-08T08:33:42.240Z,40.04
2018-06-08T08:36:18.292Z,39.93
2018-06-08T08:38:54.214Z,40.13
2018-06-08T08:41:30.212Z,39.64
2018-06-08T08:44:06.268Z,39.79
2018-06-08T08:46:42.279Z,39.78
2018-06-08T08:49:18.217Z,39.47
2018-06-08T08:51:54.302Z,40.29
2018-06-08T08:54:31.978Z,39.28
2018-06-08T08:57:08.011Z,40.30
2018-06-08T08:59:44.272Z,39.56
2018-06-08T09:02:20.305Z,39.59
2018-06-08T09:04:56.286Z,40.24
2018-06-08T09:07:34.224Z,40.17
2018-06-08T09:10:10.334Z,39.88
2018-06-08T09:12:46.440Z,39.46
2018-06-08T09:15:23.630Z,39.36
2018-06-08T09:17:59.695Z,39.25
2018-06-08T09:20:35.555Z,39.66
2018-06-08T09:23:09.459Z,39.33
2018-06-08T09:25:45.422Z,40.15
2018-06-08T09:28:21.298Z,39.53
2018-06-08T09:30:57.209Z,39.71
2018-06-08T09:33:33.279Z,39.83
2018-06-08T09:36:09.986Z,39.51
2018-06-08T09:38:45.619Z,40.25
2018-06-08T09:41:21.271Z,39.97
2018-06-08T09:43:57.089Z,39.55
2018-06-08T09:46:32.755Z,39.25
2018-06-08T09:49:08.407Z,39.80
2018-06-08T09:51:42.217Z,40.22
2018-06-08T09:54:18.068Z,40.26
2018-06-08T09:56:54.207Z,39.60
2018-06-08T09:59:29.804Z,39.39
2018-06-08T10:02:05.433Z,39.67
2018-06-08T10:04:39.024Z,40.28
2018-06-08T10:07:14.783Z,40.42
2018-06-08T10:09:50.296Z,39.63
2018-06-08T10:12:26.093Z,39.73
2018-06-08T10:15:01.666Z,39.10
2018-06-08T10:17:37.275Z,39.59
2018-06-08T10:20:12.857Z,40.22
2018-06-08T10:22:48.453Z,39.49
2018-06-08T10:25:24.103Z,40.20
2018-06-08T10:27:59.797Z,39.85
2018-06-08T10:30:35.276Z,39.96
2018-06-08T10:33:11.078Z,40.08
2018-06-08T10:35:46.762Z,39.15
2018-06-08T10:38:22.416Z,39.51
2018-06-08T10:40:56.001Z,40.09
2018-06-08T10:43:31.670Z,39.48
2018-06-08T10:46:07.325Z,39.59
2018-06-08T10:48:41.019Z,39.10
2018-06-08T10:51:43.213Z,40.20
2018-06-08T10:54:19.988Z,39.17
2018-06-08T10:56:56.279Z,40.27
2018-06-08T10:59:32.090Z,39.21
2018-06-08T11:02:07.940Z,39.54
2018-06-08T11:04:44.097Z,39.13
2018-06-08T11:07:20.089Z,38.89
2018-06-08T11:09:55.851Z,39.61
2018-06-08T11:12:31.545Z,39.06
2018-06-08T11:15:05.213Z,39.51
2018-06-08T11:17:41.090Z,38.63
2018-06-08T11:20:17.073Z,39.26
2018-06-08T11:22:53.069Z,39.11
2018-06-08T11:25:29.107Z,38.84
2018-06-08T11:28:05.121Z,38.91
2018-06-08T11:30:40.981Z,39.83
2018-06-08T11:33:17.093Z,39.55
2018-06-08T11:35:52.950Z,39.87
2018-06-08T11:38:28.850Z,39.51
2018-06-08T11:41:04.554Z,39.53
2018-06-08T11:43:41.277Z,39.58
2018-06-08T11:46:17.109Z,39.86
2018-06-08T11:48:53.859Z,39.40
2018-06-08T11:51:30.211Z,39.37
2018-06-08T11:54:06.290Z,39.56
2018-06-08T11:56:42.340Z,39.96
2018-06-08T11:59:18.430Z,39.69
2018-06-08T12:01:54.898Z,39.38
2018-06-08T12:04:31.087Z,38.69
2018-06-08T12:07:07.312Z,39.66
2018-06-08T12:09:43.443Z,39.95
2018-06-08T12:12:19.433Z,39.05
2018-06-08T12:14:55.826Z,39.61
2018-06-08T12:17:32.094Z,39.96
2018-06-08T12:20:08.278Z,39.08
2018-06-08T12:22:44.428Z,40.01
2018-06-08T12:25:20.918Z,39.21
2018-06-08T12:27:57.209Z,38.85
2018-06-08T12:30:33.303Z,39.05
2018-06-08T12:33:10.274Z,39.64
2018-06-08T12:35:46.469Z,39.02
2018-06-08T12:38:22.530Z,40.21
2018-06-08T12:40:58.420Z,38.94
2018-06-08T12:48:41.270Z,39.44
2018-06-08T12:51:17.082Z,39.73
2018-06-08T12:53:55.092Z,39.80
2018-06-08T12:56:32.273Z,39.76
2018-06-08T12:59:09.289Z,39.95
2018-06-08T13:01:46.742Z,40.29
2018-06-08T13:04:23.555Z,40.01
2018-06-08T13:07:01.289Z,39.63
2018-06-08T13:09:38.328Z,39.14
2018-06-08T13:12:15.272Z,40.17
2018-06-08T13:14:52.811Z,39.75
2018-06-08T13:17:30.070Z,40.63
2018-06-08T13:20:07.335Z,40.71
2018-06-08T13:22:43.873Z,40.07
2018-06-08T13:25:22.116Z,39.97
2018-06-08T13:27:59.288Z,40.54
2018-06-08T13:30:37.211Z,40.48
2018-06-08T13:33:15.270Z,40.59
2018-06-08T13:35:52.429Z,40.79
2018-06-08T13:38:29.696Z,40.06
2018-06-08T13:41:07.077Z,40.55
2018-06-08T13:43:44.320Z,39.84
2018-06-08T13:46:34.611Z,40.32
2018-06-08T13:49:13.266Z,40.43
2018-06-08T13:51:50.674Z,41.01
2018-06-08T13:54:28.122Z,40.51
2018-06-08T13:57:06.575Z,40.40
2018-06-08T13:59:43.817Z,41.26
2018-06-08T14:02:21.511Z,41.16
2018-06-08T14:04:58.806Z,40.63
2018-06-08T14:07:36.893Z,40.97
2018-06-08T14:10:15.262Z,41.63
2018-06-08T14:12:53.067Z,41.91
2018-06-08T14:15:30.467Z,41.56
2018-06-08T14:18:07.569Z,41.30
2018-06-08T14:20:44.089Z,41.92
2018-06-08T14:23:21.101Z,41.23
2018-06-08T14:25:58.664Z,41.44
2018-06-08T14:28:36.673Z,41.54
2018-06-08T14:31:15.451Z,41.63
2018-06-08T14:33:52.398Z,41.74
2018-06-08T14:36:27.467Z,42.37
2018-06-08T14:39:03.974Z,41.27
2018-06-08T14:41:41.414Z,42.08
2018-06-08T14:44:18.512Z,41.97
2018-06-08T14:46:55.284Z,41.82
2018-06-08T14:49:33.062Z,42.28
2018-06-08T14:52:09.867Z,42.33
2018-06-08T14:54:47.093Z,42.44
2018-06-08T14:57:24.482Z,41.55
2018-06-08T15:00:02.265Z,42.48
2018-06-08T15:02:39.209Z,41.93
2018-06-08T15:05:18.259Z,42.13
2018-06-08T15:07:55.091Z,42.80
2018-06-08T15:10:33.266Z,42.70
2018-06-08T15:13:10.266Z,42.22
2018-06-08T15:15:47.281Z,42.71
2018-06-08T15:18:22.011Z,42.94
2018-06-08T15:20:59.807Z,42.77
2018-06-08T15:23:38.135Z,42.56
2018-06-08T15:26:14.859Z,42.64
2018-06-08T15:28:52.268Z,43.04
2018-06-08T15:31:29.661Z,43.13
2018-06-08T15:34:07.237Z,42.88
2018-06-08T15:36:45.282Z,43.37
2018-06-08T15:39:23.303Z,42.36
2018-06-08T15:42:00.488Z,42.48
2018-06-08T15:44:39.372Z,42.38
2018-06-08T15:47:16.753Z,43.25
2018-06-08T15:49:54.104Z,43.08
2018-06-08T15:52:31.690Z,43.04
2018-06-08T15:55:09.334Z,43.12
2018-06-08T15:57:46.560Z,43.14
2018-06-08T16:00:24.919Z,43.13
2018-06-08T16:03:03.426Z,42.70
2018-06-08T16:05:40.578Z,43.58
2018-06-08T16:08:18.108Z,43.17
2018-06-08T16:10:54.080Z,42.83
2018-06-08T16:13:30.256Z,42.68
2018-06-08T16:16:06.443Z,43.72
2018-06-08T16:18:42.437Z,43.24
2018-06-08T16:21:18.668Z,43.64
2018-06-08T16:23:54.452Z,43.28
2018-06-08T16:26:30.402Z,42.87
2018-06-08T16:29:06.271Z,42.76
2018-06-08T16:31:42.114Z,42.98
2018-06-08T16:34:18.079Z,42.63
2018-06-08T16:36:54.213Z,43.46
2018-06-08T16:39:30.843Z,42.97
2018-06-08T16:42:06.807Z,43.87
2018-06-08T16:44:43.330Z,43.32
2018-06-08T16:47:19.212Z,43.30
2018-06-08T16:49:55.868Z,43.74
2018-06-08T16:52:31.760Z,43.02
2018-06-08T16:55:08.278Z,43.40
2018-06-08T16:57:44.280Z,43.66
2018-06-08T17:00:21.213Z,43.13
2018-06-08T17:02:57.428Z,43.06
2018-06-08T17:05:34.094Z,42.76
2018-06-08T17:08:10.301Z,42.72
2018-06-08T17:10:46.684Z,43.60
2018-06-08T17:13:22.861Z,42.39
2018-06-08T17:15:59.297Z,42.48
2018-06-08T17:18:35.690Z,43.30
2018-06-08T17:21:18.866Z,43.22
2018-06-08T17:23:55.325Z,43.20
2018-06-08T17:26:29.400Z,42.74
2018-06-08T17:29:05.424Z,42.97
2018-06-08T17:31:42.432Z,42.52
2018-06-08T17:34:18.444Z,42.29
2018-06-08T17:36:54.688Z,42.63
2018-06-08T17:39:30.882Z,42.61
2018-06-08T17:42:07.307Z,42.28
2018-06-08T17:44:43.882Z,42.21
2018-06-08T17:47:20.531Z,42.45
2018-06-08T17:49:56.559Z,42.82
2018-06-08T17:52:33.213Z,42.23
2018-06-08T17:55:09.424Z,41.91
2018-06-08T17:57:45.437Z,42.56
2018-06-08T18:00:23.551Z,41.76
2018-06-08T18:02:59.854Z,42.04
2018-06-08T18:05:36.291Z,41.42
2018-06-08T18:08:12.484Z,42.39
2018-06-08T18:10:48.536Z,42.34
2018-06-08T18:13:27.421Z,41.71
2018-06-08T18:16:03.782Z,42.23
2018-06-08T18:18:41.706Z,41.35
2018-06-08T18:21:18.339Z,41.31
2018-06-08T18:23:54.893Z,40.86
2018-06-08T18:26:31.444Z,41.87
2018-06-08T18:29:07.875Z,40.87
2018-06-08T18:31:44.096Z,40.98
2018-06-08T18:34:20.418Z,41.15
2018-06-08T18:36:56.450Z,40.69
2018-06-08T18:39:32.851Z,41.21
2018-06-08T18:42:09.393Z,41.01
2018-06-08T18:44:43.471Z,41.17
2018-06-08T18:47:19.876Z,41.09
2018-06-08T18:49:57.529Z,41.62
2018-06-08T18:52:34.339Z,41.07
2018-06-08T18:55:10.752Z,41.46
2018-06-08T18:57:47.088Z,40.92
2018-06-08T19:00:25.427Z,41.26
2018-06-08T19:03:01.664Z,41.14
2018-06-08T19:05:39.755Z,40.76
2018-06-08T19:08:16.799Z,40.78
2018-06-08T19:10:55.526Z,40.63
2018-06-08T19:13:33.297Z,40.44
2018-06-08T19:16:09.423Z,40.42
2018-06-08T19:18:43.213Z,39.85
2018-06-08T19:21:21.939Z,40.87
2018-06-08T19:23:58.215Z,40.22
2018-06-08T19:26:35.333Z,40.00
2018-06-08T19:29:11.403Z,40.85
2018-06-08T19:31:48.099Z,40.90
2018-06-08T19:34:24.578Z,40.67
2018-06-08T19:37:01.495Z,40.98
2018-06-08T19:39:37.818Z,40.87
2018-06-08T19:42:14.340Z,40.13
2018-06-08T19:44:50.884Z,39.69
2018-06-08T19:47:27.274Z,39.90
2018-06-08T19:50:03.682Z,40.98
2018-06-08T19:52:40.334Z,40.18
2018-06-08T19:55:17.408Z,39.34
2018-06-08T19:57:54.525Z,40.49
2018-06-08T20:00:31.937Z,39.88
2018-06-08T20:03:08.934Z,39.62
2018-06-08T20:05:43.322Z,39.46
2018-06-08T20:08:19.831Z,39.22
2018-06-08T20:10:56.421Z,39.72
2018-06-08T20:15:42.092Z,39.03
2018-06-08T20:18:18.273Z,39.96
2018-06-08T20:20:54.547Z,39.92
2018-06-08T20:23:30.848Z,39.05
2018-06-08T20:26:07.089Z,38.69
2018-06-08T20:28:43.556Z,39.79
2018-06-08T20:31:19.208Z,40.04
2018-06-08T20:33:55.117Z,38.87
2018-06-08T20:36:31.073Z,38.78
2018-06-08T20:39:07.677Z,39.52
2018-06-08T20:41:43.426Z,39.02
2018-06-08T20:44:19.117Z,38.55
2018-06-08T20:46:54.885Z,38.08
2018-06-08T20:49:32.269Z,37.90
2018-06-08T20:52:09.882Z,38.00
2018-06-08T20:54:47.831Z,38.44
2018-06-08T20:57:34.415Z,38.50
2018-06-08T21:00:10.740Z,38.26
2018-06-08T21:02:46.790Z,38.52
2018-06-08T21:05:22.761Z,38.38
2018-06-08T21:07:58.693Z,38.45
2018-06-08T21:10:34.819Z,38.63
2018-06-08T21:13:11.411Z,37.95
2018-06-08T21:15:48.095Z,38.04
2018-06-08T21:18:24.113Z,38.50
2018-06-08T21:21:00.205Z,37.91
2018-06-08T21:23:35.891Z,38.99
2018-06-08T21:26:11.438Z,37.84
2018-06-08T21:28:47.874Z,38.73
2018-06-08T21:31:24.865Z,38.29
2018-06-08T21:34:00.751Z,37.97
2018-06-08T21:36:36.661Z,38.03
2018-06-08T21:39:14.559Z,37.68
2018-06-08T21:41:50.269Z,36.69
2018-06-08T21:44:26.087Z,37.82
2018-06-08T21:47:02.188Z,37.22
2018-06-08T21:49:38.287Z,36.15
2018-06-08T21:52:15.210Z,36.09
2018-06-08T21:54:52.050Z,36.36
2018-06-08T21:57:29.421Z,36.24
2018-06-08T22:00:08.855Z,36.37
2018-06-08T22:02:45.847Z,36.10
2018-06-08T22:05:21.841Z,35.55
2018-06-08T22:07:57.481Z,35.07
2018-06-08T22:10:33.283Z,35.22
2018-06-08T22:13:09.260Z,35.39
2018-06-08T22:15:45.412Z,34.56
2018-06-08T22:18:21.073Z,34.90
2018-06-08T22:20:58.258Z,35.04
2018-06-08T22:23:34.087Z,34.59
2018-06-08T22:26:10.267Z,34.09
2018-06-08T22:28:44.419Z,34.79
2018-06-08T22:31:20.423Z,34.42
2018-06-08T22:33:56.317Z,33.84
2018-06-08T22:36:33.111Z,34.05
2018-06-08T22:39:10.266Z,34.82
2018-06-08T22:41:45.906Z,34.00
2018-06-08T22:44:21.748Z,34.04
2018-06-08T22:46:58.862Z,33.98
2018-06-08T22:50:45.865Z,34.08
2018-06-08T22:53:22.207Z,34.08
2018-06-08T22:55:58.097Z,33.67
2018-06-08T22:58:34.260Z,34.05
2018-06-08T23:01:11.407Z,34.44
2018-06-08T23:03:47.431Z,33.06
2018-06-08T23:06:23.309Z,33.14
2018-06-08T23:08:59.454Z,33.70
2018-06-08T23:11:35.265Z,34.46
2018-06-08T23:14:11.571Z,34.00
2018-06-08T23:16:47.206Z,34.20
2018-06-08T23:19:23.096Z,34.38
2018-06-08T23:21:59.118Z,33.81
2018-06-08T23:24:36.826Z,33.36
2018-06-08T23:27:27.004Z,33.40
2018-06-08T23:30:02.903Z,33.68
2018-06-08T23:32:39.136Z,33.79
2018-06-08T23:35:16.205Z,33.91
2018-06-08T23:37:52.115Z,33.67
2018-06-08T23:40:28.270Z,34.41
2018-06-08T23:43:04.443Z,33.73
2018-06-08T23:45:40.283Z,33.25
2018-06-08T23:48:16.318Z,32.91
2018-06-08T23:50:52.210Z,33.87
2018-06-08T23:53:28.301Z,33.91
2018-06-08T23:56:04.423Z,32.75
2018-06-08T23:58:40.260Z,33.33
